sensor_id;sensor_type;location;lat;lon;timestamp;temperature;humidity
83283;DHT22;73190;50.780;5.658;2024-01-15T00:01:31;2.50;83.70
83283;DHT22;73190;50.780;5.658;2024-01-15T00:03:59;2.70;83.20
83283;DHT22;73190;50.780;5.658;2024-01-15T00:06:27;2.90;82.30
83283;DHT22;73190;50.780;5.658;2024-01-15T00:08:55;3.00;81.50
83283;DHT22;73190;50.780;5.658;2024-01-15T00:11:24;3.10;81.10
83283;DHT22;73190;50.780;5.658;2024-01-15T00:13:51;3.00;81.40
83283;DHT22;73190;50.780;5.658;2024-01-15T00:16:19;2.90;81.80
83283;DHT22;73190;50.780;5.658;2024-01-15T00:18:47;2.90;82.00
83283;DHT22;73190;50.780;5.658;2024-01-15T00:21:14;2.90;82.00
83283;DHT22;73190;50.780;5.658;2024-01-15T00:23:45;2.90;82.40
83283;DHT22;73190;50.780;5.658;2024-01-15T00:26:13;3.10;81.30
83283;DHT22;73190;50.780;5.658;2024-01-15T00:28:41;2.90;82.10
83283;DHT22;73190;50.780;5.658;2024-01-15T00:31:09;2.90;82.70
83283;DHT22;73190;50.780;5.658;2024-01-15T00:33:37;2.90;82.00
83283;DHT22;73190;50.780;5.658;2024-01-15T00:36:04;3.00;81.80
83283;DHT22;73190;50.780;5.658;2024-01-15T00:38:34;3.20;81.20
83283;DHT22;73190;50.780;5.658;2024-01-15T00:41:01;3.20;80.60
83283;DHT22;73190;50.780;5.658;2024-01-15T00:43:29;2.80;82.60
83283;DHT22;73190;50.780;5.658;2024-01-15T00:45:57;2.70;83.10
83283;DHT22;73190;50.780;5.658;2024-01-15T00:48:24;2.80;82.70
83283;DHT22;73190;50.780;5.658;2024-01-15T00:50:52;2.90;82.70
83283;DHT22;73190;50.780;5.658;2024-01-15T00:53:20;2.90;82.40
83283;DHT22;73190;50.780;5.658;2024-01-15T00:55:53;3.10;81.60
83283;DHT22;73190;50.780;5.658;2024-01-15T00:58:21;3.10;81.80
83283;DHT22;73190;50.780;5.658;2024-01-15T01:00:48;3.00;82.10
83283;DHT22;73190;50.780;5.658;2024-01-15T01:03:16;2.90;82.90
83283;DHT22;73190;50.780;5.658;2024-01-15T01:05:44;2.80;83.70
83283;DHT22;73190;50.780;5.658;2024-01-15T01:08:11;2.90;84.10
83283;DHT22;73190;50.780;5.658;2024-01-15T01:10:39;3.00;85.10
83283;DHT22;73190;50.780;5.658;2024-01-15T01:13:06;2.80;86.30
83283;DHT22;73190;50.780;5.658;2024-01-15T01:15:34;2.70;88.10
83283;DHT22;73190;50.780;5.658;2024-01-15T01:18:01;2.50;89.50
83283;DHT22;73190;50.780;5.658;2024-01-15T01:20:29;2.40;90.20
83283;DHT22;73190;50.780;5.658;2024-01-15T01:22:57;2.50;90.20
83283;DHT22;73190;50.780;5.658;2024-01-15T01:25:25;2.60;90.20
83283;DHT22;73190;50.780;5.658;2024-01-15T01:27:57;2.50;90.30
83283;DHT22;73190;50.780;5.658;2024-01-15T01:30:21;2.40;90.70
83283;DHT22;73190;50.780;5.658;2024-01-15T01:32:49;2.40;90.60
83283;DHT22;73190;50.780;5.658;2024-01-15T01:35:17;2.40;90.70
83283;DHT22;73190;50.780;5.658;2024-01-15T01:37:45;2.40;90.50
83283;DHT22;73190;50.780;5.658;2024-01-15T01:40:12;2.40;90.50
83283;DHT22;73190;50.780;5.658;2024-01-15T01:42:40;2.40;90.60
83283;DHT22;73190;50.780;5.658;2024-01-15T01:45:08;2.50;90.30
83283;DHT22;73190;50.780;5.658;2024-01-15T01:47:36;2.70;90.00
83283;DHT22;73190;50.780;5.658;2024-01-15T01:50:04;2.50;90.20
83283;DHT22;73190;50.780;5.658;2024-01-15T01:52:32;2.50;90.40
83283;DHT22;73190;50.780;5.658;2024-01-15T01:55:01;2.40;90.30
83283;DHT22;73190;50.780;5.658;2024-01-15T01:57:31;2.30;90.80
83283;DHT22;73190;50.780;5.658;2024-01-15T02:00:02;2.20;90.90
83283;DHT22;73190;50.780;5.658;2024-01-15T02:02:32;2.30;90.90
83283;DHT22;73190;50.780;5.658;2024-01-15T02:05:01;2.50;90.50
83283;DHT22;73190;50.780;5.658;2024-01-15T02:07:29;2.70;89.60
83283;DHT22;73190;50.780;5.658;2024-01-15T02:09:56;2.60;90.30
83283;DHT22;73190;50.780;5.658;2024-01-15T02:12:24;2.80;89.50
83283;DHT22;73190;50.780;5.658;2024-01-15T02:14:51;2.80;88.80
83283;DHT22;73190;50.780;5.658;2024-01-15T02:17:19;2.90;88.80
83283;DHT22;73190;50.780;5.658;2024-01-15T02:19:46;3.00;88.40
83283;DHT22;73190;50.780;5.658;2024-01-15T02:22:14;3.00;87.80
83283;DHT22;73190;50.780;5.658;2024-01-15T02:24:42;2.80;89.20
83283;DHT22;73190;50.780;5.658;2024-01-15T02:27:10;2.80;89.40
83283;DHT22;73190;50.780;5.658;2024-01-15T02:29:37;2.80;89.00
83283;DHT22;73190;50.780;5.658;2024-01-15T02:32:06;2.80;89.00
83283;DHT22;73190;50.780;5.658;2024-01-15T02:34:33;3.00;88.40
83283;DHT22;73190;50.780;5.658;2024-01-15T02:37:01;2.90;88.70
83283;DHT22;73190;50.780;5.658;2024-01-15T02:39:28;2.90;88.70
83283;DHT22;73190;50.780;5.658;2024-01-15T02:41:56;3.10;88.10
83283;DHT22;73190;50.780;5.658;2024-01-15T02:44:24;3.00;88.70
83283;DHT22;73190;50.780;5.658;2024-01-15T02:46:51;3.10;88.70
83283;DHT22;73190;50.780;5.658;2024-01-15T02:49:19;3.10;88.70
83283;DHT22;73190;50.780;5.658;2024-01-15T02:51:46;3.20;88.40
83283;DHT22;73190;50.780;5.658;2024-01-15T02:54:14;3.10;88.40
83283;DHT22;73190;50.780;5.658;2024-01-15T02:56:42;3.10;89.00
83283;DHT22;73190;50.780;5.658;2024-01-15T02:59:09;3.20;88.20
83283;DHT22;73190;50.780;5.658;2024-01-15T03:01:37;3.20;87.80
83283;DHT22;73190;50.780;5.658;2024-01-15T03:04:04;3.10;88.60
83283;DHT22;73190;50.780;5.658;2024-01-15T03:06:32;3.10;89.20
83283;DHT22;73190;50.780;5.658;2024-01-15T03:08:59;2.80;90.30
83283;DHT22;73190;50.780;5.658;2024-01-15T03:11:27;2.90;90.10
83283;DHT22;73190;50.780;5.658;2024-01-15T03:13:54;3.10;89.60
83283;DHT22;73190;50.780;5.658;2024-01-15T03:16:22;2.90;90.00
83283;DHT22;73190;50.780;5.658;2024-01-15T03:18:49;3.00;89.90
83283;DHT22;73190;50.780;5.658;2024-01-15T03:21:17;3.00;90.00
83283;DHT22;73190;50.780;5.658;2024-01-15T03:23:44;2.90;90.10
83283;DHT22;73190;50.780;5.658;2024-01-15T03:26:12;3.10;89.20
83283;DHT22;73190;50.780;5.658;2024-01-15T03:28:39;3.10;89.30
83283;DHT22;73190;50.780;5.658;2024-01-15T03:31:08;3.00;89.50
83283;DHT22;73190;50.780;5.658;2024-01-15T03:33:35;3.10;88.80
83283;DHT22;73190;50.780;5.658;2024-01-15T03:36:03;3.10;88.30
83283;DHT22;73190;50.780;5.658;2024-01-15T03:38:30;3.00;89.00
83283;DHT22;73190;50.780;5.658;2024-01-15T03:40:58;2.90;89.80
83283;DHT22;73190;50.780;5.658;2024-01-15T03:43:27;2.90;89.80
83283;DHT22;73190;50.780;5.658;2024-01-15T03:45:54;3.00;89.50
83283;DHT22;73190;50.780;5.658;2024-01-15T03:48:22;3.20;88.30
83283;DHT22;73190;50.780;5.658;2024-01-15T03:50:49;3.20;87.90
83283;DHT22;73190;50.780;5.658;2024-01-15T03:53:17;3.30;87.50
83283;DHT22;73190;50.780;5.658;2024-01-15T03:55:44;3.30;87.40
83283;DHT22;73190;50.780;5.658;2024-01-15T03:58:12;3.40;87.20
83283;DHT22;73190;50.780;5.658;2024-01-15T04:00:42;3.20;87.00
83283;DHT22;73190;50.780;5.658;2024-01-15T04:03:09;3.00;88.40
83283;DHT22;73190;50.780;5.658;2024-01-15T04:05:37;3.20;87.50
83283;DHT22;73190;50.780;5.658;2024-01-15T04:08:05;3.10;88.10
83283;DHT22;73190;50.780;5.658;2024-01-15T04:10:33;3.30;87.10
83283;DHT22;73190;50.780;5.658;2024-01-15T04:13:00;3.20;87.30
83283;DHT22;73190;50.780;5.658;2024-01-15T04:15:29;3.30;87.00
83283;DHT22;73190;50.780;5.658;2024-01-15T04:17:57;3.20;87.20
83283;DHT22;73190;50.780;5.658;2024-01-15T04:20:24;3.20;87.80
83283;DHT22;73190;50.780;5.658;2024-01-15T04:22:52;3.30;87.10
83283;DHT22;73190;50.780;5.658;2024-01-15T04:25:20;3.20;87.00
83283;DHT22;73190;50.780;5.658;2024-01-15T04:27:47;3.10;87.70
83283;DHT22;73190;50.780;5.658;2024-01-15T04:30:15;3.00;88.90
83283;DHT22;73190;50.780;5.658;2024-01-15T04:32:42;3.20;87.70
83283;DHT22;73190;50.780;5.658;2024-01-15T04:35:10;3.20;87.20
83283;DHT22;73190;50.780;5.658;2024-01-15T04:37:40;3.20;87.70
83283;DHT22;73190;50.780;5.658;2024-01-15T04:40:09;3.30;87.10
83283;DHT22;73190;50.780;5.658;2024-01-15T04:42:36;3.30;87.30
83283;DHT22;73190;50.780;5.658;2024-01-15T04:45:04;3.30;87.10
83283;DHT22;73190;50.780;5.658;2024-01-15T04:47:32;3.20;87.60
83283;DHT22;73190;50.780;5.658;2024-01-15T04:49:59;3.20;87.40
83283;DHT22;73190;50.780;5.658;2024-01-15T04:52:27;3.30;87.10
83283;DHT22;73190;50.780;5.658;2024-01-15T04:54:54;3.10;87.90
83283;DHT22;73190;50.780;5.658;2024-01-15T04:57:22;3.10;88.10
83283;DHT22;73190;50.780;5.658;2024-01-15T04:59:50;3.00;88.40
83283;DHT22;73190;50.780;5.658;2024-01-15T05:02:17;3.00;88.60
83283;DHT22;73190;50.780;5.658;2024-01-15T05:04:45;3.10;88.10
83283;DHT22;73190;50.780;5.658;2024-01-15T05:07:12;3.00;88.60
83283;DHT22;73190;50.780;5.658;2024-01-15T05:09:40;2.90;89.50
83283;DHT22;73190;50.780;5.658;2024-01-15T05:12:07;3.00;88.60
83283;DHT22;73190;50.780;5.658;2024-01-15T05:14:35;3.10;87.80
83283;DHT22;73190;50.780;5.658;2024-01-15T05:17:02;3.20;87.50
83283;DHT22;73190;50.780;5.658;2024-01-15T05:19:30;3.10;88.10
83283;DHT22;73190;50.780;5.658;2024-01-15T05:21:58;2.90;88.70
83283;DHT22;73190;50.780;5.658;2024-01-15T05:24:25;2.90;88.80
83283;DHT22;73190;50.780;5.658;2024-01-15T05:26:53;2.90;88.80
83283;DHT22;73190;50.780;5.658;2024-01-15T05:29:20;3.10;88.10
83283;DHT22;73190;50.780;5.658;2024-01-15T05:31:48;3.10;87.50
83283;DHT22;73190;50.780;5.658;2024-01-15T05:34:15;3.10;87.30
83283;DHT22;73190;50.780;5.658;2024-01-15T05:36:43;3.30;86.30
83283;DHT22;73190;50.780;5.658;2024-01-15T05:39:10;3.20;86.00
83283;DHT22;73190;50.780;5.658;2024-01-15T05:41:38;3.00;87.30
83283;DHT22;73190;50.780;5.658;2024-01-15T05:44:05;2.90;87.80
83283;DHT22;73190;50.780;5.658;2024-01-15T05:46:33;2.80;88.60
83283;DHT22;73190;50.780;5.658;2024-01-15T05:49:00;2.90;88.20
83283;DHT22;73190;50.780;5.658;2024-01-15T05:51:28;2.90;88.10
83283;DHT22;73190;50.780;5.658;2024-01-15T05:53:55;2.90;88.80
83283;DHT22;73190;50.780;5.658;2024-01-15T05:56:23;2.80;88.80
83283;DHT22;73190;50.780;5.658;2024-01-15T05:58:51;2.90;88.20
83283;DHT22;73190;50.780;5.658;2024-01-15T06:01:19;2.80;88.40
83283;DHT22;73190;50.780;5.658;2024-01-15T06:03:46;2.90;88.60
83283;DHT22;73190;50.780;5.658;2024-01-15T06:06:13;3.00;87.70
83283;DHT22;73190;50.780;5.658;2024-01-15T06:08:41;3.10;87.20
83283;DHT22;73190;50.780;5.658;2024-01-15T06:11:08;3.00;86.90
83283;DHT22;73190;50.780;5.658;2024-01-15T06:13:36;3.00;87.60
83283;DHT22;73190;50.780;5.658;2024-01-15T06:16:14;3.00;87.50
83283;DHT22;73190;50.780;5.658;2024-01-15T06:18:44;2.70;88.50
83283;DHT22;73190;50.780;5.658;2024-01-15T06:21:11;2.70;88.50
83283;DHT22;73190;50.780;5.658;2024-01-15T06:23:40;2.60;89.20
83283;DHT22;73190;50.780;5.658;2024-01-15T06:26:08;2.50;89.50
83283;DHT22;73190;50.780;5.658;2024-01-15T06:28:36;2.60;88.90
83283;DHT22;73190;50.780;5.658;2024-01-15T06:31:04;2.70;88.60
83283;DHT22;73190;50.780;5.658;2024-01-15T06:33:32;2.90;87.60
83283;DHT22;73190;50.780;5.658;2024-01-15T06:35:59;2.80;88.30
83283;DHT22;73190;50.780;5.658;2024-01-15T06:38:27;2.80;88.70
83283;DHT22;73190;50.780;5.658;2024-01-15T06:40:54;2.70;89.30
83283;DHT22;73190;50.780;5.658;2024-01-15T06:43:22;2.50;90.20
83283;DHT22;73190;50.780;5.658;2024-01-15T06:45:49;2.50;90.10
83283;DHT22;73190;50.780;5.658;2024-01-15T06:48:17;2.60;90.00
83283;DHT22;73190;50.780;5.658;2024-01-15T06:50:45;2.50;89.90
83283;DHT22;73190;50.780;5.658;2024-01-15T06:53:12;2.50;90.00
83283;DHT22;73190;50.780;5.658;2024-01-15T06:55:40;2.50;89.80
83283;DHT22;73190;50.780;5.658;2024-01-15T06:58:07;2.60;89.50
83283;DHT22;73190;50.780;5.658;2024-01-15T07:00:35;2.60;89.00
83283;DHT22;73190;50.780;5.658;2024-01-15T07:03:03;2.50;89.60
83283;DHT22;73190;50.780;5.658;2024-01-15T07:05:30;2.40;90.00
83283;DHT22;73190;50.780;5.658;2024-01-15T07:07:58;2.50;89.20
83283;DHT22;73190;50.780;5.658;2024-01-15T07:10:26;2.50;89.20
83283;DHT22;73190;50.780;5.658;2024-01-15T07:12:53;2.60;89.00
83283;DHT22;73190;50.780;5.658;2024-01-15T07:15:21;2.70;88.40
83283;DHT22;73190;50.780;5.658;2024-01-15T07:17:49;2.60;87.90
83283;DHT22;73190;50.780;5.658;2024-01-15T07:20:16;2.60;89.40
83283;DHT22;73190;50.780;5.658;2024-01-15T07:22:45;2.60;88.50
83283;DHT22;73190;50.780;5.658;2024-01-15T07:25:13;2.70;88.10
83283;DHT22;73190;50.780;5.658;2024-01-15T07:27:41;2.80;87.10
83283;DHT22;73190;50.780;5.658;2024-01-15T07:30:11;2.90;87.00
83283;DHT22;73190;50.780;5.658;2024-01-15T07:32:39;2.70;87.80
83283;DHT22;73190;50.780;5.658;2024-01-15T07:35:07;2.60;88.50
83283;DHT22;73190;50.780;5.658;2024-01-15T07:37:35;2.70;88.10
83283;DHT22;73190;50.780;5.658;2024-01-15T07:40:02;2.50;89.00
83283;DHT22;73190;50.780;5.658;2024-01-15T07:42:31;2.40;89.90
83283;DHT22;73190;50.780;5.658;2024-01-15T07:44:58;2.40;90.00
83283;DHT22;73190;50.780;5.658;2024-01-15T07:47:26;2.50;90.00
83283;DHT22;73190;50.780;5.658;2024-01-15T07:49:54;2.50;90.10
83283;DHT22;73190;50.780;5.658;2024-01-15T07:52:22;2.70;89.00
83283;DHT22;73190;50.780;5.658;2024-01-15T07:54:50;2.80;89.00
83283;DHT22;73190;50.780;5.658;2024-01-15T07:57:17;2.90;88.30
83283;DHT22;73190;50.780;5.658;2024-01-15T07:59:45;3.00;87.80
83283;DHT22;73190;50.780;5.658;2024-01-15T08:02:12;3.00;87.40
83283;DHT22;73190;50.780;5.658;2024-01-15T08:04:40;3.10;87.10
83283;DHT22;73190;50.780;5.658;2024-01-15T08:07:07;3.20;86.80
83283;DHT22;73190;50.780;5.658;2024-01-15T08:09:35;3.20;86.50
83283;DHT22;73190;50.780;5.658;2024-01-15T08:12:03;3.20;86.10
83283;DHT22;73190;50.780;5.658;2024-01-15T08:14:32;3.20;85.70
83283;DHT22;73190;50.780;5.658;2024-01-15T08:17:00;3.20;85.60
83283;DHT22;73190;50.780;5.658;2024-01-15T08:19:28;3.20;85.80
83283;DHT22;73190;50.780;5.658;2024-01-15T08:21:56;3.20;84.60
83283;DHT22;73190;50.780;5.658;2024-01-15T08:24:24;3.30;84.50
83283;DHT22;73190;50.780;5.658;2024-01-15T08:26:51;3.50;83.60
83283;DHT22;73190;50.780;5.658;2024-01-15T08:29:19;3.40;83.50
83283;DHT22;73190;50.780;5.658;2024-01-15T08:31:47;3.40;83.40
83283;DHT22;73190;50.780;5.658;2024-01-15T08:34:15;3.40;83.10
83283;DHT22;73190;50.780;5.658;2024-01-15T08:36:42;3.60;82.40
83283;DHT22;73190;50.780;5.658;2024-01-15T08:39:10;3.80;81.20
83283;DHT22;73190;50.780;5.658;2024-01-15T08:41:37;3.90;80.70
83283;DHT22;73190;50.780;5.658;2024-01-15T08:44:05;3.90;80.40
83283;DHT22;73190;50.780;5.658;2024-01-15T08:46:33;3.80;80.60
83283;DHT22;73190;50.780;5.658;2024-01-15T08:49:00;3.60;81.40
83283;DHT22;73190;50.780;5.658;2024-01-15T08:51:28;3.70;81.50
83283;DHT22;73190;50.780;5.658;2024-01-15T08:53:56;3.80;81.00
83283;DHT22;73190;50.780;5.658;2024-01-15T08:56:24;3.70;80.80
83283;DHT22;73190;50.780;5.658;2024-01-15T08:58:53;3.70;81.10
83283;DHT22;73190;50.780;5.658;2024-01-15T09:01:21;3.70;81.30
83283;DHT22;73190;50.780;5.658;2024-01-15T09:03:49;3.60;82.20
83283;DHT22;73190;50.780;5.658;2024-01-15T09:06:17;3.70;81.60
83283;DHT22;73190;50.780;5.658;2024-01-15T09:08:45;3.90;80.70
83283;DHT22;73190;50.780;5.658;2024-01-15T09:11:12;3.90;81.20
83283;DHT22;73190;50.780;5.658;2024-01-15T09:13:40;3.90;81.40
83283;DHT22;73190;50.780;5.658;2024-01-15T09:16:07;4.00;81.40
83283;DHT22;73190;50.780;5.658;2024-01-15T09:18:35;3.90;82.00
83283;DHT22;73190;50.780;5.658;2024-01-15T09:21:04;3.70;82.70
83283;DHT22;73190;50.780;5.658;2024-01-15T09:23:31;3.60;83.40
83283;DHT22;73190;50.780;5.658;2024-01-15T09:25:59;3.80;83.10
83283;DHT22;73190;50.780;5.658;2024-01-15T09:28:26;3.80;83.60
83283;DHT22;73190;50.780;5.658;2024-01-15T09:30:54;3.90;82.60
83283;DHT22;73190;50.780;5.658;2024-01-15T09:33:22;3.90;83.20
83283;DHT22;73190;50.780;5.658;2024-01-15T09:35:49;4.00;82.40
83283;DHT22;73190;50.780;5.658;2024-01-15T09:38:17;4.00;82.30
83283;DHT22;73190;50.780;5.658;2024-01-15T09:40:46;3.90;82.40
83283;DHT22;73190;50.780;5.658;2024-01-15T09:43:15;3.80;82.90
83283;DHT22;73190;50.780;5.658;2024-01-15T09:45:43;3.90;82.70
83283;DHT22;73190;50.780;5.658;2024-01-15T09:48:11;4.00;82.60
83283;DHT22;73190;50.780;5.658;2024-01-15T09:50:39;3.80;82.50
83283;DHT22;73190;50.780;5.658;2024-01-15T09:53:06;3.80;82.70
83283;DHT22;73190;50.780;5.658;2024-01-15T09:55:34;3.90;82.50
83283;DHT22;73190;50.780;5.658;2024-01-15T09:58:02;3.90;81.90
83283;DHT22;73190;50.780;5.658;2024-01-15T10:00:30;4.00;81.60
83283;DHT22;73190;50.780;5.658;2024-01-15T10:02:58;3.90;81.60
83283;DHT22;73190;50.780;5.658;2024-01-15T10:05:27;4.10;81.00
83283;DHT22;73190;50.780;5.658;2024-01-15T10:07:57;3.90;81.20
83283;DHT22;73190;50.780;5.658;2024-01-15T10:10:24;3.90;81.70
83283;DHT22;73190;50.780;5.658;2024-01-15T10:12:52;4.00;81.30
83283;DHT22;73190;50.780;5.658;2024-01-15T10:15:22;4.10;81.00
83283;DHT22;73190;50.780;5.658;2024-01-15T10:17:51;4.10;80.60
83283;DHT22;73190;50.780;5.658;2024-01-15T10:20:18;4.30;79.70
83283;DHT22;73190;50.780;5.658;2024-01-15T10:22:46;4.40;78.80
83283;DHT22;73190;50.780;5.658;2024-01-15T10:25:14;4.40;78.30
83283;DHT22;73190;50.780;5.658;2024-01-15T10:27:42;4.60;78.00
83283;DHT22;73190;50.780;5.658;2024-01-15T10:30:10;4.70;77.60
83283;DHT22;73190;50.780;5.658;2024-01-15T10:32:39;5.00;77.00
83283;DHT22;73190;50.780;5.658;2024-01-15T10:35:07;5.00;76.00
83283;DHT22;73190;50.780;5.658;2024-01-15T10:37:35;5.10;75.80
83283;DHT22;73190;50.780;5.658;2024-01-15T10:40:03;5.10;75.40
83283;DHT22;73190;50.780;5.658;2024-01-15T10:42:34;5.10;74.60
83283;DHT22;73190;50.780;5.658;2024-01-15T10:45:02;5.10;74.90
83283;DHT22;73190;50.780;5.658;2024-01-15T10:47:30;5.30;74.80
83283;DHT22;73190;50.780;5.658;2024-01-15T10:49:58;5.30;74.00
83283;DHT22;73190;50.780;5.658;2024-01-15T10:52:27;5.50;73.30
83283;DHT22;73190;50.780;5.658;2024-01-15T10:54:56;5.70;72.60
83283;DHT22;73190;50.780;5.658;2024-01-15T10:57:25;5.80;72.20
83283;DHT22;73190;50.780;5.658;2024-01-15T10:59:53;5.70;71.50
83283;DHT22;73190;50.780;5.658;2024-01-15T11:02:21;5.40;71.90
83283;DHT22;73190;50.780;5.658;2024-01-15T11:04:49;5.40;73.10
83283;DHT22;73190;50.780;5.658;2024-01-15T11:07:16;5.40;72.60
83283;DHT22;73190;50.780;5.658;2024-01-15T11:09:45;5.50;72.80
83283;DHT22;73190;50.780;5.658;2024-01-15T11:12:14;5.50;71.60
83283;DHT22;73190;50.780;5.658;2024-01-15T11:14:50;5.30;72.40
83283;DHT22;73190;50.780;5.658;2024-01-15T11:17:20;4.90;73.70
83283;DHT22;73190;50.780;5.658;2024-01-15T11:19:50;4.50;75.40
83283;DHT22;73190;50.780;5.658;2024-01-15T11:25:13;4.80;75.30
83283;DHT22;73190;50.780;5.658;2024-01-15T11:27:49;5.00;74.40
83283;DHT22;73190;50.780;5.658;2024-01-15T11:30:20;5.50;75.10
83283;DHT22;73190;50.780;5.658;2024-01-15T11:32:49;7.50;67.00
83283;DHT22;73190;50.780;5.658;2024-01-15T11:35:16;8.60;60.50
83283;DHT22;73190;50.780;5.658;2024-01-15T11:43:03;11.20;53.20
83283;DHT22;73190;50.780;5.658;2024-01-15T11:45:31;11.60;51.60
83283;DHT22;73190;50.780;5.658;2024-01-15T11:50:45;13.10;48.40
83283;DHT22;73190;50.780;5.658;2024-01-15T11:53:27;15.40;43.70
83283;DHT22;73190;50.780;5.658;2024-01-15T11:55:57;16.70;39.50
83283;DHT22;73190;50.780;5.658;2024-01-15T11:58:26;16.50;39.70
83283;DHT22;73190;50.780;5.658;2024-01-15T12:00:54;16.90;38.70
83283;DHT22;73190;50.780;5.658;2024-01-15T12:03:23;16.50;38.70
83283;DHT22;73190;50.780;5.658;2024-01-15T12:05:52;16.30;40.00
83283;DHT22;73190;50.780;5.658;2024-01-15T12:08:24;14.20;41.80
83283;DHT22;73190;50.780;5.658;2024-01-15T12:10:52;12.90;44.10
83283;DHT22;73190;50.780;5.658;2024-01-15T12:13:20;11.30;47.90
83283;DHT22;73190;50.780;5.658;2024-01-15T12:15:49;10.60;50.40
83283;DHT22;73190;50.780;5.658;2024-01-15T12:18:18;10.00;50.80
83283;DHT22;73190;50.780;5.658;2024-01-15T12:20:46;9.10;54.70
83283;DHT22;73190;50.780;5.658;2024-01-15T12:23:14;8.40;58.50
83283;DHT22;73190;50.780;5.658;2024-01-15T12:25:43;7.90;60.90
83283;DHT22;73190;50.780;5.658;2024-01-15T12:28:10;7.70;63.00
83283;DHT22;73190;50.780;5.658;2024-01-15T12:30:39;7.30;66.10
83283;DHT22;73190;50.780;5.658;2024-01-15T12:33:07;6.80;68.80
83283;DHT22;73190;50.780;5.658;2024-01-15T12:35:35;6.40;71.30
83283;DHT22;73190;50.780;5.658;2024-01-15T12:38:03;6.20;72.60
83283;DHT22;73190;50.780;5.658;2024-01-15T12:40:32;6.00;73.60
83283;DHT22;73190;50.780;5.658;2024-01-15T12:43:03;5.70;75.20
83283;DHT22;73190;50.780;5.658;2024-01-15T12:45:31;5.50;76.40
83283;DHT22;73190;50.780;5.658;2024-01-15T12:47:58;5.50;76.60
83283;DHT22;73190;50.780;5.658;2024-01-15T12:50:27;5.50;76.70
83283;DHT22;73190;50.780;5.658;2024-01-15T12:52:54;5.50;76.70
83283;DHT22;73190;50.780;5.658;2024-01-15T12:55:22;5.50;77.00
83283;DHT22;73190;50.780;5.658;2024-01-15T12:57:50;5.30;77.80
83283;DHT22;73190;50.780;5.658;2024-01-15T13:00:19;5.20;78.40
83283;DHT22;73190;50.780;5.658;2024-01-15T13:02:48;5.20;78.10
83283;DHT22;73190;50.780;5.658;2024-01-15T13:05:16;5.20;78.80
83283;DHT22;73190;50.780;5.658;2024-01-15T13:07:44;5.20;78.20
83283;DHT22;73190;50.780;5.658;2024-01-15T13:10:12;5.20;78.90
83283;DHT22;73190;50.780;5.658;2024-01-15T13:12:41;4.90;79.90
83283;DHT22;73190;50.780;5.658;2024-01-15T13:15:08;4.90;80.40
83283;DHT22;73190;50.780;5.658;2024-01-15T13:17:39;5.00;80.40
83283;DHT22;73190;50.780;5.658;2024-01-15T13:20:07;5.10;79.90
83283;DHT22;73190;50.780;5.658;2024-01-15T13:22:35;5.10;79.40
83283;DHT22;73190;50.780;5.658;2024-01-15T13:25:04;5.00;78.70
83283;DHT22;73190;50.780;5.658;2024-01-15T13:27:33;5.10;78.70
83283;DHT22;73190;50.780;5.658;2024-01-15T13:30:04;4.90;79.50
83283;DHT22;73190;50.780;5.658;2024-01-15T13:32:33;4.80;80.00
83283;DHT22;73190;50.780;5.658;2024-01-15T13:35:01;4.60;80.50
83283;DHT22;73190;50.780;5.658;2024-01-15T13:37:31;4.70;80.70
83283;DHT22;73190;50.780;5.658;2024-01-15T13:39:58;4.80;79.90
83283;DHT22;73190;50.780;5.658;2024-01-15T13:42:26;4.90;79.70
83283;DHT22;73190;50.780;5.658;2024-01-15T13:44:53;4.80;79.90
83283;DHT22;73190;50.780;5.658;2024-01-15T13:47:21;4.70;80.10
83283;DHT22;73190;50.780;5.658;2024-01-15T13:49:48;4.80;80.00
83283;DHT22;73190;50.780;5.658;2024-01-15T13:52:16;4.90;79.90
83283;DHT22;73190;50.780;5.658;2024-01-15T13:54:44;4.80;81.60
83283;DHT22;73190;50.780;5.658;2024-01-15T13:57:12;4.70;81.20
83283;DHT22;73190;50.780;5.658;2024-01-15T13:59:39;4.50;82.40
83283;DHT22;73190;50.780;5.658;2024-01-15T14:02:07;4.50;82.50
83283;DHT22;73190;50.780;5.658;2024-01-15T14:04:36;4.20;83.60
83283;DHT22;73190;50.780;5.658;2024-01-15T14:07:04;4.20;84.00
83283;DHT22;73190;50.780;5.658;2024-01-15T14:09:32;4.30;83.50
83283;DHT22;73190;50.780;5.658;2024-01-15T14:12:00;4.30;83.60
83283;DHT22;73190;50.780;5.658;2024-01-15T14:14:29;4.40;83.50
83283;DHT22;73190;50.780;5.658;2024-01-15T14:16:56;4.30;82.80
83283;DHT22;73190;50.780;5.658;2024-01-15T14:19:24;4.40;82.90
83283;DHT22;73190;50.780;5.658;2024-01-15T14:21:51;4.40;82.70
83283;DHT22;73190;50.780;5.658;2024-01-15T14:24:19;4.50;81.90
83283;DHT22;73190;50.780;5.658;2024-01-15T14:26:46;4.50;81.40
83283;DHT22;73190;50.780;5.658;2024-01-15T14:29:14;4.30;81.70
83283;DHT22;73190;50.780;5.658;2024-01-15T14:31:41;4.20;82.20
83283;DHT22;73190;50.780;5.658;2024-01-15T14:34:09;4.10;82.60
83283;DHT22;73190;50.780;5.658;2024-01-15T14:36:38;4.10;82.90
83283;DHT22;73190;50.780;5.658;2024-01-15T14:39:05;4.20;82.30
83283;DHT22;73190;50.780;5.658;2024-01-15T14:41:33;4.30;81.80
83283;DHT22;73190;50.780;5.658;2024-01-15T14:44:00;4.10;81.70
83283;DHT22;73190;50.780;5.658;2024-01-15T14:46:28;4.20;82.30
83283;DHT22;73190;50.780;5.658;2024-01-15T14:48:56;4.20;81.90
83283;DHT22;73190;50.780;5.658;2024-01-15T14:51:24;4.20;81.60
83283;DHT22;73190;50.780;5.658;2024-01-15T14:53:51;4.30;81.40
83283;DHT22;73190;50.780;5.658;2024-01-15T14:56:19;4.20;81.90
83283;DHT22;73190;50.780;5.658;2024-01-15T14:58:47;3.90;82.60
83283;DHT22;73190;50.780;5.658;2024-01-15T15:01:14;4.00;83.10
83283;DHT22;73190;50.780;5.658;2024-01-15T15:03:42;4.10;82.60
83283;DHT22;73190;50.780;5.658;2024-01-15T15:06:11;4.10;82.70
83283;DHT22;73190;50.780;5.658;2024-01-15T15:08:39;4.00;81.70
83283;DHT22;73190;50.780;5.658;2024-01-15T15:11:07;3.90;82.60
83283;DHT22;73190;50.780;5.658;2024-01-15T15:13:35;3.90;81.80
83283;DHT22;73190;50.780;5.658;2024-01-15T15:16:02;3.90;82.00
83283;DHT22;73190;50.780;5.658;2024-01-15T15:18:30;3.90;82.50
83283;DHT22;73190;50.780;5.658;2024-01-15T15:20:57;3.90;82.60
83283;DHT22;73190;50.780;5.658;2024-01-15T15:23:25;3.90;82.50
83283;DHT22;73190;50.780;5.658;2024-01-15T15:25:52;3.90;82.40
83283;DHT22;73190;50.780;5.658;2024-01-15T15:28:20;3.90;82.60
83283;DHT22;73190;50.780;5.658;2024-01-15T15:30:47;4.00;82.00
83283;DHT22;73190;50.780;5.658;2024-01-15T15:33:15;4.00;81.80
83283;DHT22;73190;50.780;5.658;2024-01-15T15:35:42;3.90;83.20
83283;DHT22;73190;50.780;5.658;2024-01-15T15:38:10;3.90;82.40
83283;DHT22;73190;50.780;5.658;2024-01-15T15:40:38;3.80;82.80
83283;DHT22;73190;50.780;5.658;2024-01-15T15:43:05;3.80;82.90
83283;DHT22;73190;50.780;5.658;2024-01-15T15:45:33;3.90;82.30
83283;DHT22;73190;50.780;5.658;2024-01-15T15:48:00;3.90;82.50
83283;DHT22;73190;50.780;5.658;2024-01-15T15:50:27;3.90;82.20
83283;DHT22;73190;50.780;5.658;2024-01-15T15:52:56;3.90;82.10
83283;DHT22;73190;50.780;5.658;2024-01-15T15:55:23;3.90;82.00
83283;DHT22;73190;50.780;5.658;2024-01-15T15:57:51;3.80;82.10
83283;DHT22;73190;50.780;5.658;2024-01-15T16:00:18;3.80;82.70